Terminal Aerodrome Forecast
Issued by NWS Lake Charles, LA

Home | Current Version | Previous Version | Text Only | Print | Product List | Glossary On
Versions: 1 2 3 4 5 6 7 8 9 10 11 12 13 14 15 16
000
FTUS44 KLCH 261723
TAFBPT
TAF
KBPT 261723Z 2618/2718 17013G20KT P6SM VCSH BKN020 BKN030
     FM262000 19015G25KT P6SM VCTS BKN015CB OVC030
     FM270300 33014KT P6SM FEW250=

USA.gov is the U.S. government's official web portal to all federal, state and local government web resources and services.